createdAt,value
2019-03-17T00:01:22.054Z,100125.83
2019-03-17T00:03:53.110Z,100117.26
2019-03-17T00:06:24.169Z,100107.01
2019-03-17T00:08:55.310Z,100105.91
2019-03-17T00:11:26.489Z,100107.16
2019-03-17T00:13:57.535Z,100094.05
2019-03-17T00:16:28.606Z,100092.19
2019-03-17T00:18:59.650Z,100089.41
2019-03-17T00:21:30.779Z,100089.25
2019-03-17T00:24:02.690Z,100087.79
2019-03-17T00:26:36.225Z,100084.16
2019-03-17T00:29:07.306Z,100080.68
2019-03-17T00:31:39.312Z,100074.88
2019-03-17T00:34:10.303Z,100069.63
2019-03-17T00:36:41.414Z,100059.30
2019-03-17T00:39:12.540Z,100052.23
2019-03-17T00:41:43.681Z,100044.91
2019-03-17T00:44:14.761Z,100049.15
2019-03-17T00:46:46.678Z,100040.17
2019-03-17T00:49:17.710Z,100046.89
2019-03-17T00:51:48.813Z,100035.48
2019-03-17T00:54:19.930Z,100031.70
2019-03-17T00:56:51.030Z,100030.79
2019-03-17T00:59:22.058Z,100024.94
2019-03-17T01:01:53.934Z,100017.07
2019-03-17T01:04:25.300Z,100007.44
2019-03-17T01:06:56.319Z,100008.65
2019-03-17T01:09:27.702Z,100010.88
2019-03-17T01:11:58.858Z,100008.25
2019-03-17T01:14:29.827Z,100005.47
2019-03-17T01:17:01.398Z,99995.28
2019-03-17T01:19:32.473Z,100004.97
2019-03-17T01:22:03.628Z,99991.85
2019-03-17T01:24:34.715Z,99980.53
2019-03-17T01:27:05.766Z,99978.92
2019-03-17T01:29:36.971Z,99974.50
2019-03-17T01:32:07.943Z,99969.51
2019-03-17T01:34:38.975Z,99980.53
2019-03-17T01:37:10.098Z,99968.63
2019-03-17T01:39:41.051Z,99973.98
2019-03-17T01:42:12.069Z,99964.60
2019-03-17T01:44:43.185Z,99968.47
2019-03-17T01:47:14.221Z,99972.02
2019-03-17T01:49:45.227Z,99954.96
2019-03-17T01:52:16.238Z,99954.20
2019-03-17T01:54:47.326Z,99951.23
2019-03-17T01:57:18.489Z,99950.60
2019-03-17T01:59:49.559Z,99947.72
2019-03-17T02:02:20.704Z,99950.64
2019-03-17T02:04:51.677Z,99944.53
2019-03-17T02:07:27.299Z,99946.34
2019-03-17T02:09:58.378Z,99930.98
2019-03-17T02:12:29.375Z,99938.92
2019-03-17T02:15:00.444Z,99929.97
2019-03-17T02:17:31.405Z,99934.66
2019-03-17T02:20:02.524Z,99936.89
2019-03-17T02:22:33.545Z,99931.30
2019-03-17T02:25:06.387Z,99917.04
2019-03-17T02:27:37.381Z,99916.87
2019-03-17T02:30:11.440Z,99911.81
2019-03-17T02:32:42.440Z,99916.58
2019-03-17T02:35:13.504Z,99912.66
2019-03-17T02:37:45.085Z,99907.04
2019-03-17T02:40:16.103Z,99907.34
2019-03-17T02:42:47.366Z,99904.14
2019-03-17T02:45:18.418Z,99907.63
2019-03-17T02:47:49.611Z,99893.92
2019-03-17T02:50:21.195Z,99900.77
2019-03-17T02:52:52.412Z,99894.39
2019-03-17T02:55:23.426Z,99886.34
2019-03-17T02:57:54.398Z,99891.59
2019-03-17T03:00:25.726Z,99884.69
2019-03-17T03:02:56.811Z,99888.98
2019-03-17T03:05:28.067Z,99884.88
2019-03-17T03:07:59.078Z,99883.39
2019-03-17T03:10:32.128Z,99885.73
2019-03-17T03:13:03.488Z,99882.91
2019-03-17T03:15:34.698Z,99883.01
2019-03-17T03:18:05.645Z,99873.42
2019-03-17T03:20:36.716Z,99879.71
2019-03-17T03:23:09.954Z,99882.45
2019-03-17T03:25:41.076Z,99881.03
2019-03-17T03:28:12.161Z,99883.59
2019-03-17T03:30:43.223Z,99870.25
2019-03-17T03:33:14.348Z,99872.70
2019-03-17T03:35:45.390Z,99875.14
2019-03-17T03:38:18.568Z,99872.34
2019-03-17T03:40:50.537Z,99872.70
2019-03-17T03:43:21.794Z,99877.48
2019-03-17T03:45:52.895Z,99867.55
2019-03-17T03:48:24.031Z,99863.67
2019-03-17T03:50:55.034Z,99861.72
2019-03-17T03:53:26.659Z,99862.00
2019-03-17T03:56:00.369Z,99863.13
2019-03-17T03:58:31.416Z,99856.28
2019-03-17T04:01:02.390Z,99860.00
2019-03-17T04:03:33.547Z,99857.88
2019-03-17T04:06:05.121Z,99860.95
2019-03-17T04:08:36.265Z,99859.17
2019-03-17T04:11:07.426Z,99847.91
2019-03-17T04:13:38.432Z,99845.55
2019-03-17T04:16:09.470Z,99845.66
2019-03-17T04:18:40.499Z,99840.02
2019-03-17T04:21:11.540Z,99835.53
2019-03-17T04:23:42.494Z,99838.23
2019-03-17T04:26:14.555Z,99843.03
2019-03-17T04:28:45.595Z,99842.48
2019-03-17T04:31:16.701Z,99834.41
2019-03-17T04:33:48.353Z,99834.98
2019-03-17T04:36:19.436Z,99834.22
2019-03-17T04:38:50.626Z,99831.02
2019-03-17T04:41:21.740Z,99833.45
2019-03-17T04:43:52.800Z,99836.62
2019-03-17T04:46:23.809Z,99835.59
2019-03-17T04:48:55.206Z,99832.31
2019-03-17T04:51:27.308Z,99831.74
2019-03-17T04:53:58.407Z,99833.33
2019-03-17T04:56:29.500Z,99827.23
2019-03-17T04:59:00.587Z,99826.19
2019-03-17T05:01:31.631Z,99825.50
2019-03-17T05:04:02.724Z,99825.13
2019-03-17T05:06:33.868Z,99822.84
2019-03-17T05:09:06.652Z,99822.47
2019-03-17T05:11:37.905Z,99825.37
2019-03-17T05:14:09.615Z,99822.52
2019-03-17T05:16:40.690Z,99819.43
2019-03-17T05:19:11.776Z,99811.34
2019-03-17T05:21:42.916Z,99818.47
2019-03-17T05:24:14.062Z,99817.50
2019-03-17T05:26:45.606Z,99813.95
2019-03-17T05:29:17.076Z,99820.52
2019-03-17T05:31:48.771Z,99822.58
2019-03-17T05:34:20.820Z,99816.03
2019-03-17T05:37:05.020Z,99813.02
2019-03-17T05:39:24.550Z,99808.49
2019-03-17T05:41:57.012Z,99810.08
2019-03-17T05:44:28.134Z,99803.27
2019-03-17T05:46:59.167Z,99802.11
2019-03-17T05:49:30.266Z,99797.55
2019-03-17T05:52:02.095Z,99800.72
2019-03-17T05:54:33.631Z,99793.45
2019-03-17T06:00:26.580Z,99786.94
2019-03-17T06:03:23.242Z,99796.89
2019-03-17T06:06:13.045Z,99798.94
2019-03-17T06:08:50.005Z,99798.01
2019-03-17T06:11:26.102Z,99792.94
2019-03-17T06:13:58.727Z,99783.15
2019-03-17T06:16:29.835Z,99794.69
2019-03-17T06:19:03.387Z,99787.75
2019-03-17T06:21:34.778Z,99787.05
2019-03-17T06:24:05.836Z,99786.42
2019-03-17T06:26:37.187Z,99771.28
2019-03-17T06:29:08.333Z,99775.70
2019-03-17T06:31:39.357Z,99775.16
2019-03-17T06:34:10.494Z,99779.80
2019-03-17T06:36:41.661Z,99783.92
2019-03-17T06:39:15.450Z,99773.16
2019-03-17T06:41:46.491Z,99772.37
2019-03-17T06:44:17.549Z,99782.71
2019-03-17T06:46:48.673Z,99766.29
2019-03-17T06:49:19.778Z,99769.16
2019-03-17T06:51:51.041Z,99771.13
2019-03-17T06:54:23.367Z,99787.70
2019-03-17T06:56:54.350Z,99775.59
2019-03-17T06:59:26.409Z,99777.97
2019-03-17T07:01:57.435Z,99784.91
2019-03-17T07:04:28.633Z,99780.48
2019-03-17T07:06:59.669Z,99780.40
2019-03-17T07:09:30.835Z,99778.64
2019-03-17T07:12:01.966Z,99786.75
2019-03-17T07:14:33.850Z,99779.55
2019-03-17T07:17:05.090Z,99773.37
2019-03-17T07:19:36.827Z,99768.25
2019-03-17T07:22:07.846Z,99760.94
2019-03-17T07:24:38.968Z,99761.46
2019-03-17T07:27:10.126Z,99757.89
2019-03-17T07:29:43.697Z,99760.73
2019-03-17T07:32:14.846Z,99763.66
2019-03-17T07:34:46.059Z,99770.03
2019-03-17T07:37:22.357Z,99755.92
2019-03-17T07:39:53.477Z,99751.52
2019-03-17T07:42:24.447Z,99754.55
2019-03-17T07:44:56.881Z,99755.72
2019-03-17T07:47:27.985Z,99758.35
2019-03-17T07:49:59.526Z,99763.77
2019-03-17T07:52:31.822Z,99765.48
2019-03-17T07:55:02.931Z,99751.41
2019-03-17T07:57:34.086Z,99754.93
2019-03-17T08:00:15.920Z,99754.94
2019-03-17T08:02:47.010Z,99745.24
2019-03-17T08:05:18.167Z,99748.61
2019-03-17T08:07:49.136Z,99741.46
2019-03-17T08:10:20.346Z,99740.52
2019-03-17T08:12:51.461Z,99732.70
2019-03-17T08:15:23.481Z,99739.80
2019-03-17T08:17:54.565Z,99733.08
2019-03-17T08:20:25.774Z,99725.98
2019-03-17T08:22:56.885Z,99732.10
2019-03-17T08:25:28.038Z,99735.97
2019-03-17T08:27:59.195Z,99735.41
2019-03-17T08:30:31.101Z,99733.03
2019-03-17T08:33:03.792Z,99745.38
2019-03-17T08:35:34.965Z,99745.12
2019-03-17T08:38:22.069Z,99750.09
2019-03-17T08:41:10.269Z,99749.15
2019-03-17T08:44:24.190Z,99736.20
2019-03-17T08:50:12.856Z,99742.36
2019-03-17T08:56:01.026Z,99751.34
2019-03-17T08:58:32.262Z,99748.84
2019-03-17T09:01:04.724Z,99749.21
2019-03-17T09:07:15.125Z,99747.80
2019-03-17T09:10:25.708Z,99742.07
2019-03-17T09:16:30.153Z,99743.02
2019-03-17T09:29:58.794Z,99740.68
2019-03-17T09:40:09.770Z,99745.01
2019-03-17T09:46:22.589Z,99745.62
2019-03-17T10:10:02.519Z,99758.14
2019-03-17T10:16:17.586Z,99746.66
2019-03-17T10:19:06.942Z,99745.41
2019-03-17T10:25:17.616Z,99739.66
2019-03-17T10:28:35.366Z,99734.58
2019-03-17T10:31:46.997Z,99736.76
2019-03-17T10:34:49.630Z,99722.26
2019-03-17T10:53:46.422Z,99714.08
2019-03-17T11:06:10.479Z,99703.09
2019-03-17T11:12:49.917Z,99672.23
2019-03-17T11:16:04.600Z,99676.27
2019-03-17T11:29:50.005Z,99676.33
2019-03-17T11:36:49.163Z,99664.59
2019-03-17T12:06:48.451Z,99644.60
2019-03-17T12:15:39.554Z,99651.48
2019-03-17T12:18:43.844Z,99645.63
2019-03-17T12:24:47.343Z,99635.09
2019-03-17T12:31:15.017Z,99637.45
2019-03-17T12:37:18.553Z,99649.61
2019-03-17T12:40:43.002Z,99645.54
2019-03-17T12:54:16.112Z,99645.06
2019-03-17T13:10:43.945Z,99674.43
2019-03-17T13:13:59.749Z,99674.05
2019-03-17T13:17:42.592Z,99676.38
2019-03-17T14:04:53.915Z,99692.52
2019-03-17T14:10:47.310Z,99708.70
2019-03-17T14:20:02.980Z,99735.05
2019-03-17T14:23:41.891Z,99733.90
2019-03-17T14:26:37.790Z,99742.42
2019-03-17T14:32:00.923Z,99731.84
2019-03-17T14:34:44.774Z,99741.36
2019-03-17T14:37:32.808Z,99730.66
2019-03-17T14:40:25.648Z,99732.46
2019-03-17T14:46:08.626Z,99738.52
2019-03-17T14:48:10.347Z,99739.23
2019-03-17T14:48:48.243Z,99737.81
2019-03-17T14:51:19.302Z,99739.86
2019-03-17T14:53:51.487Z,99746.12
2019-03-17T14:56:23.296Z,99747.79
2019-03-17T14:58:54.731Z,99751.91
2019-03-17T15:01:28.702Z,99751.44
2019-03-17T15:03:59.942Z,99739.52
2019-03-17T15:06:31.174Z,99739.05
2019-03-17T15:09:03.345Z,99751.19
2019-03-17T15:11:34.465Z,99751.30
2019-03-17T15:14:05.848Z,99749.50
2019-03-17T15:16:37.324Z,99766.22
2019-03-17T15:19:10.036Z,99760.36
2019-03-17T15:21:41.411Z,99755.44
2019-03-17T15:24:13.507Z,99765.31
2019-03-17T15:26:44.967Z,99769.99
2019-03-17T15:29:16.276Z,99769.75
2019-03-17T15:31:47.628Z,99769.17
2019-03-17T15:34:20.138Z,99769.55
2019-03-17T15:36:51.441Z,99772.55
2019-03-17T15:39:22.786Z,99769.56
2019-03-17T15:41:55.129Z,99773.77
2019-03-17T15:44:26.727Z,99765.59
2019-03-17T15:46:59.889Z,99755.38
2019-03-17T15:49:31.822Z,99743.38
2019-03-17T15:52:03.319Z,99754.53
2019-03-17T15:54:34.726Z,99753.92
2019-03-17T15:57:09.070Z,99752.97
2019-03-17T15:59:42.956Z,99763.55
2019-03-17T16:02:14.248Z,99767.05
2019-03-17T16:04:45.521Z,99858.59
2019-03-17T16:07:42.314Z,99869.70
2019-03-17T16:10:33.748Z,99883.62
2019-03-17T16:13:41.286Z,99892.59
2019-03-17T16:16:21.733Z,99910.02
2019-03-17T16:19:08.817Z,99916.61
2019-03-17T16:25:08.132Z,99909.75
2019-03-17T16:28:01.528Z,99903.31
2019-03-17T16:33:17.400Z,99917.94
2019-03-17T16:36:03.516Z,99924.59
2019-03-17T16:38:46.657Z,99927.09
2019-03-17T16:41:42.621Z,99937.85
2019-03-17T16:44:22.133Z,99939.69
2019-03-17T16:47:10.869Z,99935.47
2019-03-17T16:50:14.006Z,99926.45
2019-03-17T16:52:36.707Z,99932.17
2019-03-17T16:55:28.915Z,99944.52
2019-03-17T16:58:21.437Z,99942.42
2019-03-17T17:01:06.450Z,99932.86
2019-03-17T17:03:59.718Z,99936.42
2019-03-17T17:07:24.891Z,99955.89
2019-03-17T17:10:00.665Z,99963.72
2019-03-17T17:15:33.764Z,99963.45
2019-03-17T17:20:53.352Z,99979.16
2019-03-17T17:23:41.455Z,99978.80
2019-03-17T17:26:37.398Z,99988.93
2019-03-17T17:29:44.004Z,99988.94
2019-03-17T17:35:32.184Z,99983.51
2019-03-17T17:38:32.760Z,99996.66
2019-03-17T17:41:51.373Z,99998.91
2019-03-17T17:45:02.101Z,100001.25
2019-03-17T17:47:50.654Z,100016.67
2019-03-17T17:53:38.173Z,100029.52
2019-03-17T18:03:13.333Z,100021.24
2019-03-17T18:05:56.637Z,100033.92
2019-03-17T19:12:26.030Z,100029.37
2019-03-17T19:19:49.670Z,100039.31
2019-03-17T20:11:30.851Z,100080.91
2019-03-17T21:51:21.570Z,100142.39
2019-03-17T21:56:32.636Z,100109.52
2019-03-17T22:02:55.115Z,100124.72
2019-03-17T22:03:05.892Z,100109.92
2019-03-17T22:06:03.138Z,100116.69
2019-03-17T22:33:21.883Z,100153.07
2019-03-17T22:47:15.569Z,100147.25
2019-03-17T22:53:02.660Z,100167.91
2019-03-17T22:59:03.832Z,100197.88
2019-03-17T23:02:02.191Z,100212.05
2019-03-17T23:08:25.346Z,100223.78
2019-03-17T23:27:33.648Z,100251.97
2019-03-17T23:30:42.732Z,100244.24
2019-03-17T23:33:27.642Z,100243.48
2019-03-17T23:39:36.013Z,100242.17
2019-03-17T23:55:22.045Z,100246.35
2019-03-17T23:58:18.524Z,100263.71
